createdAt,value
2018-06-02T00:02:00.723Z,1.50
2018-06-02T00:04:27.629Z,1.50
2018-06-02T00:06:53.808Z,1.77
2018-06-02T00:09:19.975Z,1.77
2018-06-02T00:11:46.482Z,1.97
2018-06-02T00:14:13.384Z,1.80
2018-06-02T00:16:39.580Z,1.93
2018-06-02T00:19:06.470Z,1.67
2018-06-02T00:21:32.660Z,1.57
2018-06-02T00:23:59.573Z,2.00
2018-06-02T00:26:25.773Z,2.03
2018-06-02T00:28:51.961Z,1.60
2018-06-02T00:31:18.138Z,1.70
2018-06-02T00:33:44.284Z,1.70
2018-06-02T00:36:10.449Z,1.50
2018-06-02T00:38:36.643Z,1.77
2018-06-02T00:41:02.806Z,1.70
2018-06-02T00:43:28.981Z,1.50
2018-06-02T00:45:55.178Z,1.60
2018-06-02T00:48:21.328Z,1.70
2018-06-02T00:50:47.500Z,1.87
2018-06-02T00:53:13.789Z,1.50
2018-06-02T00:55:40.042Z,1.67
2018-06-02T00:58:07.009Z,1.90
2018-06-02T01:00:33.928Z,2.43
2018-06-02T01:03:00.095Z,1.80
2018-06-02T01:05:26.273Z,1.60
2018-06-02T01:07:52.431Z,1.60
2018-06-02T01:10:18.619Z,1.67
2018-06-02T01:12:44.789Z,1.67
2018-06-02T01:15:11.938Z,1.80
2018-06-02T01:17:38.114Z,1.53
2018-06-02T01:20:04.344Z,1.60
2018-06-02T01:22:31.245Z,1.83
2018-06-02T01:24:57.405Z,1.80
2018-06-02T01:27:23.581Z,1.80
2018-06-02T01:29:49.772Z,2.00
2018-06-02T01:32:15.950Z,1.87
2018-06-02T01:34:42.157Z,1.83
2018-06-02T01:37:09.073Z,1.87
2018-06-02T01:39:35.223Z,1.50
2018-06-02T01:42:02.124Z,2.13
2018-06-02T01:44:28.328Z,1.87
2018-06-02T01:46:55.256Z,2.23
2018-06-02T01:49:22.185Z,2.03
2018-06-02T01:51:48.333Z,1.73
2018-06-02T01:54:14.579Z,1.70
2018-06-02T01:56:40.725Z,2.50
2018-06-02T01:59:07.633Z,1.40
2018-06-02T02:01:33.808Z,2.00
2018-06-02T02:04:00.696Z,1.80
2018-06-02T02:06:26.849Z,1.73
2018-06-02T02:08:52.998Z,1.83
2018-06-02T02:11:19.161Z,1.70
2018-06-02T02:13:46.096Z,1.83
2018-06-02T02:16:12.273Z,1.80
2018-06-02T02:18:38.440Z,1.57
2018-06-02T02:21:04.582Z,2.03
2018-06-02T02:23:30.761Z,1.60
2018-06-02T02:25:56.916Z,2.37
2018-06-02T02:28:23.081Z,1.60
2018-06-02T02:30:49.331Z,1.70
2018-06-02T02:33:15.472Z,2.37
2018-06-02T02:35:42.372Z,1.57
2018-06-02T02:38:08.553Z,1.73
2018-06-02T02:40:35.474Z,1.77
2018-06-02T02:43:01.750Z,1.80
2018-06-02T02:45:28.640Z,1.87
2018-06-02T02:47:54.791Z,1.87
2018-06-02T02:50:21.053Z,1.90
2018-06-02T02:52:47.943Z,1.93
2018-06-02T02:55:14.353Z,2.17
2018-06-02T02:57:40.533Z,1.70
2018-06-02T03:00:06.709Z,1.80
2018-06-02T03:02:40.539Z,1.90
2018-06-02T03:05:07.017Z,1.60
2018-06-02T03:07:33.207Z,1.77
2018-06-02T03:10:00.136Z,2.10
2018-06-02T03:12:26.341Z,1.73
2018-06-02T03:14:52.513Z,1.73
2018-06-02T03:17:19.409Z,1.90
2018-06-02T03:19:45.548Z,1.73
2018-06-02T03:22:11.739Z,1.40
2018-06-02T03:24:37.929Z,2.23
2018-06-02T03:27:04.096Z,2.10
2018-06-02T03:29:30.984Z,1.90
2018-06-02T03:31:57.144Z,1.60
2018-06-02T03:34:23.301Z,1.80
2018-06-02T03:36:49.578Z,1.70
2018-06-02T03:39:15.750Z,2.07
2018-06-02T03:41:41.933Z,1.70
2018-06-02T03:44:08.063Z,1.80
2018-06-02T03:46:34.225Z,1.83
2018-06-02T03:49:00.405Z,1.80
2018-06-02T03:51:26.740Z,2.20
2018-06-02T03:53:53.659Z,2.10
2018-06-02T03:56:21.337Z,1.67
2018-06-02T03:58:47.516Z,1.80
2018-06-02T04:01:13.725Z,1.63
2018-06-02T04:03:39.892Z,1.93
2018-06-02T04:06:06.033Z,1.93
2018-06-02T04:08:32.213Z,2.60
2018-06-02T04:10:59.876Z,1.77
2018-06-02T04:13:26.049Z,1.60
2018-06-02T04:15:52.262Z,1.70
2018-06-02T04:18:19.212Z,1.87
2018-06-02T04:20:46.141Z,2.70
2018-06-02T04:23:13.480Z,1.70
2018-06-02T04:25:39.662Z,1.90
2018-06-02T04:28:06.541Z,1.80
2018-06-02T04:30:32.727Z,2.20
2018-06-02T04:32:58.953Z,1.60
2018-06-02T04:35:25.130Z,1.83
2018-06-02T04:37:51.297Z,1.67
2018-06-02T04:40:17.587Z,1.70
2018-06-02T04:42:43.721Z,1.67
2018-06-02T04:45:11.141Z,1.80
2018-06-02T04:47:37.320Z,1.60
2018-06-02T04:50:04.264Z,1.70
2018-06-02T04:52:31.188Z,1.73
2018-06-02T04:54:57.380Z,1.90
2018-06-02T04:57:23.544Z,1.97
2018-06-02T04:59:49.700Z,1.63
2018-06-02T05:02:16.651Z,1.67
2018-06-02T05:04:43.627Z,1.80
2018-06-02T05:07:09.805Z,2.13
2018-06-02T05:09:36.006Z,1.80
2018-06-02T05:12:02.171Z,2.10
2018-06-02T05:14:28.312Z,1.67
2018-06-02T05:16:54.509Z,2.27
2018-06-02T05:19:20.665Z,1.53
2018-06-02T05:21:46.839Z,1.60
2018-06-02T05:24:13.049Z,1.53
2018-06-02T05:26:39.193Z,1.70
2018-06-02T05:29:05.486Z,1.60
2018-06-02T05:31:32.317Z,1.60
2018-06-02T05:33:58.501Z,1.53
2018-06-02T05:36:24.699Z,1.40
2018-06-02T05:38:50.948Z,1.50
2018-06-02T05:41:17.114Z,1.57
2018-06-02T05:43:43.285Z,1.80
2018-06-02T05:46:09.537Z,1.50
2018-06-02T05:48:35.725Z,1.60
2018-06-02T05:51:02.667Z,1.50
2018-06-02T05:53:28.845Z,1.50
2018-06-02T05:55:55.029Z,1.67
2018-06-02T05:58:21.953Z,1.43
2018-06-02T06:00:48.097Z,1.97
2018-06-02T06:03:14.712Z,1.80
2018-06-02T06:05:40.889Z,1.40
2018-06-02T06:08:07.045Z,1.50
2018-06-02T06:10:36.018Z,1.50
2018-06-02T06:13:02.205Z,1.43
2018-06-02T06:15:28.437Z,1.33
2018-06-02T06:17:54.667Z,1.97
2018-06-02T06:20:20.880Z,2.03
2018-06-02T06:22:47.806Z,2.10
2018-06-02T06:25:14.013Z,1.23
2018-06-02T06:27:40.191Z,1.40
2018-06-02T06:30:07.158Z,2.33
2018-06-02T06:32:33.349Z,1.30
2018-06-02T06:35:00.021Z,1.00
2018-06-02T06:37:26.969Z,1.17
2018-06-02T06:39:53.916Z,1.50
2018-06-02T06:42:20.838Z,1.80
2018-06-02T06:44:47.074Z,1.70
2018-06-02T06:47:13.218Z,1.27
2018-06-02T06:49:39.591Z,1.53
2018-06-02T06:52:05.774Z,1.40
2018-06-02T06:54:31.976Z,1.53
2018-06-02T06:56:58.146Z,1.40
2018-06-02T06:59:24.402Z,1.60
2018-06-02T07:01:51.330Z,1.70
2018-06-02T07:04:17.522Z,1.40
2018-06-02T07:06:43.959Z,1.50
2018-06-02T07:09:10.708Z,1.60
2018-06-02T07:11:36.876Z,1.40
2018-06-02T07:14:03.049Z,2.03
2018-06-02T07:16:29.234Z,1.50
2018-06-02T07:18:55.430Z,2.40
2018-06-02T07:21:21.641Z,1.40
2018-06-02T07:23:47.821Z,1.17
2018-06-02T07:26:13.976Z,1.20
2018-06-02T07:28:40.658Z,1.77
2018-06-02T07:31:07.569Z,1.50
2018-06-02T07:33:33.782Z,1.07
2018-06-02T07:36:03.265Z,1.30
2018-06-02T07:38:31.190Z,1.20
2018-06-02T07:40:58.148Z,2.13
2018-06-02T07:43:24.301Z,2.80
2018-06-02T07:45:50.464Z,1.30
2018-06-02T07:48:16.667Z,0.90
2018-06-02T07:50:43.644Z,4.50
2018-06-02T07:53:09.858Z,1.40
2018-06-02T07:55:36.772Z,1.50
2018-06-02T07:58:04.241Z,1.40
2018-06-02T08:00:30.957Z,1.63
2018-06-02T08:02:57.330Z,1.20
2018-06-02T08:05:23.525Z,1.20
2018-06-02T08:07:49.705Z,1.03
2018-06-02T08:10:15.987Z,1.20
2018-06-02T08:12:42.953Z,1.20
2018-06-02T08:15:09.096Z,1.50
2018-06-02T08:17:35.309Z,1.27
2018-06-02T08:20:01.486Z,1.30
2018-06-02T08:22:27.661Z,1.23
2018-06-02T08:24:54.593Z,1.37
2018-06-02T08:27:21.476Z,1.70
2018-06-02T08:29:47.620Z,1.63
2018-06-02T08:32:13.812Z,1.50
2018-06-02T08:34:39.989Z,1.50
2018-06-02T08:37:06.201Z,1.70
2018-06-02T08:39:33.121Z,1.53
2018-06-02T08:41:59.269Z,1.40
2018-06-02T08:44:26.153Z,1.70
2018-06-02T08:46:52.752Z,1.70
2018-06-02T08:49:20.105Z,1.57
2018-06-02T08:51:46.953Z,1.93
2018-06-02T08:54:13.113Z,2.10
2018-06-02T08:56:46.353Z,2.00
2018-06-02T08:59:13.301Z,2.00
2018-06-02T09:01:39.452Z,2.23
2018-06-02T09:04:05.649Z,1.60
2018-06-02T09:06:31.856Z,2.03
2018-06-02T09:08:58.010Z,1.97
2018-06-02T09:11:24.209Z,2.10
2018-06-02T09:13:51.094Z,2.47
2018-06-02T09:16:17.245Z,2.03
2018-06-02T09:18:43.425Z,2.50
2018-06-02T09:21:16.451Z,1.90
2018-06-02T09:23:42.624Z,2.03
2018-06-02T09:26:15.786Z,2.60
2018-06-02T09:28:41.993Z,2.17
2018-06-02T09:31:08.185Z,2.23
2018-06-02T09:33:34.453Z,2.00
2018-06-02T09:36:01.388Z,1.97
2018-06-02T09:38:27.550Z,2.67
2018-06-02T09:40:53.721Z,2.17
2018-06-02T09:43:19.985Z,2.80
2018-06-02T09:45:46.129Z,2.73
2018-06-02T09:48:12.359Z,2.37
2018-06-02T09:50:39.285Z,2.40
2018-06-02T09:53:05.464Z,2.73
2018-06-02T09:55:31.660Z,2.43
2018-06-02T09:57:57.816Z,2.83
2018-06-02T10:00:24.726Z,2.73
2018-06-02T10:02:50.948Z,2.73
2018-06-02T10:05:17.114Z,2.70
2018-06-02T10:07:43.355Z,2.73
2018-06-02T10:10:10.285Z,2.30
2018-06-02T10:12:36.464Z,2.57
2018-06-02T10:15:02.625Z,2.53
2018-06-02T10:17:28.818Z,2.50
2018-06-02T10:19:54.971Z,2.73
2018-06-02T10:22:22.001Z,2.67
2018-06-02T10:24:48.207Z,3.07
2018-06-02T10:27:14.373Z,2.90
2018-06-02T10:29:40.538Z,2.97
2018-06-02T10:32:07.097Z,2.50
2018-06-02T10:34:33.281Z,3.17
2018-06-02T10:37:00.169Z,3.50
2018-06-02T10:39:29.144Z,3.13
2018-06-02T10:41:56.860Z,3.40
2018-06-02T10:44:23.025Z,3.17
2018-06-02T10:46:49.933Z,2.60
2018-06-02T10:49:16.105Z,3.20
2018-06-02T10:51:43.094Z,4.87
2018-06-02T10:54:09.302Z,3.23
2018-06-02T10:56:36.263Z,3.30
2018-06-02T10:59:03.141Z,3.13
2018-06-02T11:01:29.351Z,2.87
2018-06-02T11:03:55.509Z,2.93
2018-06-02T11:06:21.690Z,3.20
2018-06-02T11:08:47.869Z,3.20
2018-06-02T11:11:14.169Z,2.83
2018-06-02T11:13:40.369Z,2.50
2018-06-02T11:16:06.517Z,2.87
2018-06-02T11:18:32.689Z,3.10
2018-06-02T11:20:58.842Z,2.93
2018-06-02T11:23:25.037Z,3.13
2018-06-02T11:25:51.996Z,3.17
2018-06-02T11:28:18.167Z,3.00
2018-06-02T11:30:45.309Z,3.70
2018-06-02T11:33:11.452Z,2.77
2018-06-02T11:35:37.613Z,3.50
2018-06-02T11:38:03.787Z,3.67
2018-06-02T11:40:30.417Z,3.60
2018-06-02T11:42:57.333Z,3.73
2018-06-02T11:45:23.497Z,5.17
2018-06-02T11:47:50.422Z,3.73
2018-06-02T11:50:16.607Z,3.90
2018-06-02T11:52:42.806Z,3.60
2018-06-02T11:55:09.053Z,3.53
2018-06-02T11:57:35.257Z,3.90
2018-06-02T12:00:01.442Z,3.00
2018-06-02T12:02:27.639Z,3.90
2018-06-02T12:04:53.797Z,4.03
2018-06-02T12:07:19.971Z,4.13
2018-06-02T12:09:46.157Z,4.13
2018-06-02T12:12:13.273Z,3.70
2018-06-02T12:14:39.441Z,9.00
2018-06-02T12:17:06.356Z,4.40
2018-06-02T12:19:32.496Z,4.30
2018-06-02T12:21:58.766Z,3.67
2018-06-02T12:24:24.997Z,3.30
2018-06-02T12:26:51.946Z,3.77
2018-06-02T12:29:18.854Z,3.60
2018-06-02T12:31:45.058Z,4.03
2018-06-02T12:34:11.240Z,4.77
2018-06-02T12:36:37.406Z,5.33
2018-06-02T12:39:04.357Z,5.17
2018-06-02T12:41:30.581Z,4.47
2018-06-02T12:43:57.525Z,3.90
2018-06-02T12:46:23.778Z,4.30
2018-06-02T12:48:49.996Z,4.30
2018-06-02T12:51:16.910Z,4.17
2018-06-02T12:53:43.099Z,4.00
2018-06-02T12:56:09.285Z,3.77
2018-06-02T12:58:35.454Z,3.80
2018-06-02T13:01:02.370Z,4.23
2018-06-02T13:03:28.595Z,3.87
2018-06-02T13:05:54.786Z,3.80
2018-06-02T13:08:20.947Z,3.70
2018-06-02T13:10:47.109Z,3.57
2018-06-02T13:13:13.482Z,4.53
2018-06-02T13:15:40.388Z,3.80
2018-06-02T13:18:06.566Z,3.40
2018-06-02T13:20:32.753Z,3.90
2018-06-02T13:22:58.949Z,3.70
2018-06-02T13:25:25.133Z,3.67
2018-06-02T13:27:51.320Z,4.10
2018-06-02T13:30:17.527Z,4.63
2018-06-02T13:32:43.745Z,4.33
2018-06-02T13:35:09.988Z,4.77
2018-06-02T13:37:36.911Z,4.10
2018-06-02T13:40:03.081Z,3.70
2018-06-02T13:42:29.289Z,3.57
2018-06-02T13:44:56.919Z,4.60
2018-06-02T13:47:23.079Z,5.00
2018-06-02T13:49:49.966Z,4.07
2018-06-02T13:52:16.889Z,4.47
2018-06-02T13:54:43.067Z,3.57
2018-06-02T13:57:09.266Z,4.83
2018-06-02T13:59:35.422Z,3.90
2018-06-02T14:02:02.345Z,4.10
2018-06-02T14:04:28.514Z,3.63
2018-06-02T14:06:54.697Z,3.77
2018-06-02T14:09:22.345Z,3.67
2018-06-02T14:11:48.575Z,3.63
2018-06-02T14:14:14.950Z,3.73
2018-06-02T14:16:41.859Z,3.73
2018-06-02T14:19:07.996Z,3.60
2018-06-02T14:21:34.157Z,3.90
2018-06-02T14:24:00.333Z,3.00
2018-06-02T14:26:26.512Z,3.90
2018-06-02T14:28:53.477Z,4.00
2018-06-02T14:31:20.387Z,4.07
2018-06-02T14:33:46.581Z,3.73
2018-06-02T14:36:13.477Z,3.67
2018-06-02T14:38:39.681Z,3.50
2018-06-02T14:41:05.829Z,3.00
2018-06-02T14:43:32.037Z,3.50
2018-06-02T14:45:59.209Z,3.50
2018-06-02T14:48:25.425Z,4.03
2018-06-02T14:50:52.325Z,3.30
2018-06-02T14:53:18.517Z,5.10
2018-06-02T14:55:45.443Z,4.20
2018-06-02T14:58:12.714Z,3.93
2018-06-02T15:00:39.668Z,3.13
2018-06-02T15:03:05.837Z,2.93
2018-06-02T15:05:32.902Z,3.30
2018-06-02T15:07:59.099Z,2.90
2018-06-02T15:10:25.248Z,3.50
2018-06-02T15:12:51.402Z,3.70
2018-06-02T15:15:17.560Z,3.00
2018-06-02T15:17:43.752Z,3.40
2018-06-02T15:20:09.905Z,3.97
2018-06-02T15:22:36.090Z,4.07
2018-06-02T15:25:02.333Z,4.37
2018-06-02T15:27:28.425Z,3.93
2018-06-02T15:29:54.605Z,3.50
2018-06-02T15:32:20.793Z,3.90
2018-06-02T15:34:48.439Z,3.50
2018-06-02T15:37:14.633Z,3.47
2018-06-02T15:39:40.789Z,3.60
2018-06-02T15:42:06.980Z,3.53
2018-06-02T15:44:33.909Z,3.60
2018-06-02T15:47:00.195Z,3.50
2018-06-02T15:49:26.360Z,3.67
2018-06-02T15:51:52.550Z,3.43
2018-06-02T15:54:19.426Z,3.43
2018-06-02T15:56:45.635Z,3.63
2018-06-02T15:59:11.877Z,4.13
2018-06-02T16:01:38.058Z,3.43
2018-06-02T16:04:04.222Z,3.90
2018-06-02T16:06:31.163Z,3.93
2018-06-02T16:08:57.364Z,3.60
2018-06-02T16:11:23.533Z,3.73
2018-06-02T16:13:50.669Z,4.10
2018-06-02T16:16:23.881Z,3.93
2018-06-02T16:18:51.401Z,5.40
2018-06-02T16:21:17.588Z,5.47
2018-06-02T16:23:43.773Z,9.03
2018-06-02T16:26:09.985Z,24.00
2018-06-02T16:28:36.133Z,8.67
2018-06-02T16:31:02.261Z,7.67
2018-06-02T16:33:28.437Z,5.60
2018-06-02T16:35:54.613Z,5.57
2018-06-02T16:38:20.765Z,5.70
2018-06-02T16:40:46.960Z,5.57
2018-06-02T16:43:13.108Z,6.37
2018-06-02T16:45:39.297Z,5.60
2018-06-02T16:48:05.457Z,4.80
2018-06-02T16:50:31.596Z,5.47
2018-06-02T16:52:57.784Z,6.07
2018-06-02T16:55:23.945Z,10.13
2018-06-02T16:57:50.894Z,6.33
2018-06-02T17:00:17.841Z,7.40
2018-06-02T17:02:43.982Z,7.97
2018-06-02T17:05:10.194Z,8.30
2018-06-02T17:07:36.335Z,6.80
2018-06-02T17:10:03.525Z,5.50
2018-06-02T17:12:29.695Z,5.37
2018-06-02T17:14:55.865Z,4.83
2018-06-02T17:17:22.033Z,5.23
2018-06-02T17:19:49.238Z,4.90
2018-06-02T17:22:15.404Z,5.33
2018-06-02T17:24:41.825Z,5.27
2018-06-02T17:27:08.030Z,4.80
2018-06-02T17:29:34.166Z,5.27
2018-06-02T17:32:00.350Z,4.87
2018-06-02T17:34:26.508Z,5.17
2018-06-02T17:36:52.660Z,4.87
2018-06-02T17:39:18.838Z,4.47
2018-06-02T17:41:44.970Z,5.23
2018-06-02T17:44:11.173Z,4.83
2018-06-02T17:46:37.333Z,4.67
2018-06-02T17:49:03.506Z,5.03
2018-06-02T17:51:30.514Z,4.60
2018-06-02T17:53:56.582Z,4.20
2018-06-02T17:56:23.554Z,4.60
2018-06-02T17:58:49.738Z,4.07
2018-06-02T18:01:15.932Z,4.40
2018-06-02T18:03:42.375Z,4.43
2018-06-02T18:06:08.627Z,4.23
2018-06-02T18:08:34.918Z,5.27
2018-06-02T18:11:01.216Z,3.83
2018-06-02T18:13:27.335Z,4.30
2018-06-02T18:18:53.019Z,5.33
2018-06-02T18:21:21.017Z,4.40
2018-06-02T18:23:49.174Z,4.17
2018-06-02T18:26:16.754Z,3.53
2018-06-02T18:28:44.505Z,3.73
2018-06-02T18:31:12.077Z,4.00
2018-06-02T18:33:39.693Z,4.07
2018-06-02T18:36:07.250Z,3.60
2018-06-02T18:38:35.777Z,4.07
2018-06-02T18:41:03.412Z,3.63
2018-06-02T18:43:30.983Z,4.47
2018-06-02T18:45:58.634Z,3.93
2018-06-02T18:48:26.385Z,3.87
2018-06-02T18:50:54.037Z,4.17
2018-06-02T18:53:21.745Z,4.03
2018-06-02T18:55:49.441Z,4.73
2018-06-02T18:58:17.069Z,4.40
2018-06-02T19:00:44.852Z,4.70
2018-06-02T19:03:12.503Z,5.03
2018-06-02T19:05:40.198Z,4.67
2018-06-02T19:08:07.811Z,4.20
2018-06-02T19:10:35.490Z,4.23
2018-06-02T19:13:03.116Z,4.27
2018-06-02T19:15:30.673Z,4.23
2018-06-02T19:17:58.307Z,4.03
2018-06-02T19:20:26.675Z,4.53
2018-06-02T19:22:54.324Z,3.70
2018-06-02T19:25:21.976Z,4.50
2018-06-02T19:27:49.850Z,5.30
2018-06-02T19:30:17.444Z,4.73
2018-06-02T19:32:44.990Z,4.47
2018-06-02T19:35:12.607Z,4.67
2018-06-02T19:37:40.210Z,4.87
2018-06-02T19:40:07.763Z,5.70
2018-06-02T19:45:09.553Z,4.90
2018-06-02T19:47:37.213Z,4.73
2018-06-02T19:50:04.908Z,4.73
2018-06-02T19:52:33.122Z,4.70
2018-06-02T19:55:01.137Z,4.40
2018-06-02T19:57:29.235Z,4.47
2018-06-02T20:00:00.269Z,5.03
2018-06-02T20:02:27.887Z,4.37
2018-06-02T20:04:55.933Z,4.53
2018-06-02T20:07:23.632Z,4.27
2018-06-02T20:09:51.733Z,4.00
2018-06-02T20:12:19.427Z,3.87
2018-06-02T20:14:47.121Z,4.20
2018-06-02T20:17:14.822Z,5.40
2018-06-02T20:19:42.559Z,4.17
2018-06-02T20:22:11.618Z,4.13
2018-06-02T20:24:39.373Z,4.63
2018-06-02T20:27:07.136Z,4.20
2018-06-02T20:29:35.393Z,4.03
2018-06-02T20:32:03.138Z,4.83
2018-06-02T20:34:30.911Z,3.90
2018-06-02T20:36:59.335Z,4.07
2018-06-02T20:39:27.018Z,4.80
2018-06-02T20:41:54.844Z,4.33
2018-06-02T20:44:24.379Z,4.30
2018-06-02T20:46:54.921Z,4.50
2018-06-02T20:49:24.979Z,4.13
2018-06-02T20:51:52.952Z,4.33
2018-06-02T20:54:20.793Z,4.63
2018-06-02T20:56:48.703Z,4.60
2018-06-02T20:59:16.415Z,4.30
2018-06-02T21:01:45.105Z,5.10
2018-06-02T21:04:12.835Z,6.47
2018-06-02T21:06:41.666Z,5.07
2018-06-02T21:09:10.221Z,4.87
2018-06-02T21:11:37.929Z,5.63
2018-06-02T21:14:05.645Z,4.73
2018-06-02T21:16:33.337Z,4.67
2018-06-02T21:19:00.966Z,4.83
2018-06-02T21:21:28.655Z,5.50
2018-06-02T21:23:56.347Z,4.97
2018-06-02T21:26:23.953Z,5.53
2018-06-02T21:28:51.738Z,5.40
2018-06-02T21:31:19.432Z,5.57
2018-06-02T21:33:47.161Z,5.77
2018-06-02T21:36:15.530Z,5.97
2018-06-02T21:38:43.159Z,5.47
2018-06-02T21:41:10.935Z,5.20
2018-06-02T21:43:38.627Z,7.33
2018-06-02T21:46:06.361Z,5.40
2018-06-02T21:48:34.006Z,4.83
2018-06-02T21:51:01.666Z,5.40
2018-06-02T21:53:29.321Z,5.73
2018-06-02T21:55:56.952Z,5.30
2018-06-02T21:58:24.636Z,5.97
2018-06-02T22:00:52.257Z,5.83
2018-06-02T22:03:19.914Z,4.93
2018-06-02T22:05:47.677Z,5.60
2018-06-02T22:08:15.364Z,5.57
2018-06-02T22:10:42.981Z,5.43
2018-06-02T22:13:10.672Z,4.83
2018-06-02T22:15:38.368Z,5.53
2018-06-02T22:18:06.085Z,5.97
2018-06-02T22:20:34.445Z,6.00
2018-06-02T22:23:02.187Z,5.43
2018-06-02T22:25:29.775Z,5.47
2018-06-02T22:27:57.462Z,6.10
2018-06-02T22:30:25.277Z,6.47
2018-06-02T22:32:52.938Z,6.50
2018-06-02T22:35:20.577Z,6.07
2018-06-02T22:37:48.875Z,6.50
2018-06-02T22:40:16.521Z,6.23
2018-06-02T22:42:44.166Z,7.10
2018-06-02T22:45:11.876Z,6.47
2018-06-02T22:47:39.545Z,6.73
2018-06-02T22:50:07.252Z,6.40
2018-06-02T22:52:35.749Z,6.60
2018-06-02T22:55:03.346Z,7.03
2018-06-02T22:57:31.026Z,7.40
2018-06-02T22:59:58.752Z,11.20
2018-06-02T23:02:26.409Z,8.30
2018-06-02T23:04:55.202Z,7.03
2018-06-02T23:07:22.953Z,7.90
2018-06-02T23:09:50.507Z,7.50
2018-06-02T23:12:18.102Z,9.03
2018-06-02T23:14:45.714Z,8.47
2018-06-02T23:17:13.300Z,8.60
2018-06-02T23:19:40.883Z,8.87
2018-06-02T23:22:24.849Z,10.27
2018-06-02T23:24:52.394Z,8.90
2018-06-02T23:27:20.027Z,9.30
2018-06-02T23:29:47.626Z,9.00
2018-06-02T23:32:15.184Z,11.17
2018-06-02T23:34:42.767Z,8.90
2018-06-02T23:37:10.349Z,8.97
2018-06-02T23:39:37.953Z,8.13
2018-06-02T23:42:05.568Z,8.27
2018-06-02T23:44:33.169Z,9.00
2018-06-02T23:47:00.741Z,8.67
2018-06-02T23:49:28.339Z,8.97
2018-06-02T23:51:55.932Z,8.50
2018-06-02T23:54:24.175Z,10.07
2018-06-02T23:56:51.761Z,7.80
2018-06-02T23:59:19.332Z,8.70
